Time;durP1;ratioP1;P1;durP2;ratioP2;P2;SDS_P1;SDS_P2;PMS_P1;PMS_P2;Temp;Humidity;BMP_temperature;BMP_pressure;BME280_temperature;BME280_humidity;BME280_pressure;Samples;Min_cycle;Max_cycle;Signal;HPM_P1;HPM_P2
2023/03/09 00:01:55;;;;;;;2.23;1.20;;;12.80;99.90;;;;;;5093946;28;20275;-59
2023/03/09 00:04:22;;;;;;;2.67;1.13;;;12.90;99.90;;;;;;5094056;28;20204;-59
2023/03/09 00:06:50;;;;;;;3.27;1.20;;;12.90;99.90;;;;;;5093802;28;20224;-59
2023/03/09 00:09:18;;;;;;;2.40;1.27;;;12.90;99.90;;;;;;5093910;28;20208;-59
2023/03/09 00:11:47;;;;;;;2.57;1.20;;;12.90;99.90;;;;;;5094215;28;20196;-59
2023/03/09 00:14:15;;;;;;;3.10;1.40;;;13.00;99.90;;;;;;5093796;28;20208;-58
2023/03/09 00:16:42;;;;;;;3.20;1.33;;;13.00;99.90;;;;;;5093838;28;20224;-59
2023/03/09 00:19:09;;;;;;;1.67;1.20;;;13.00;99.90;;;;;;5093927;28;20205;-58
2023/03/09 00:21:36;;;;;;;2.90;1.20;;;13.00;99.90;;;;;;5093290;28;20694;-60
2023/03/09 00:24:04;;;;;;;3.10;1.00;;;13.00;99.90;;;;;;5093905;28;20211;-60
2023/03/09 00:26:34;;;;;;;2.80;1.10;;;13.00;99.90;;;;;;5093838;28;20319;-60
2023/03/09 00:29:00;;;;;;;2.10;1.00;;;13.00;99.90;;;;;;5093811;28;20232;-59
2023/03/09 00:31:27;;;;;;;4.37;1.30;;;13.00;99.90;;;;;;5093337;28;20250;-60
2023/03/09 00:33:54;;;;;;;2.83;1.17;;;13.00;99.90;;;;;;5093536;28;20200;-59
2023/03/09 00:36:21;;;;;;;2.37;0.83;;;12.90;99.90;;;;;;5093570;28;20236;-59
2023/03/09 00:38:51;;;;;;;2.23;0.80;;;12.80;99.90;;;;;;5093548;28;20261;-60
2023/03/09 00:41:18;;;;;;;1.90;0.83;;;12.80;99.90;;;;;;5093411;28;20598;-60
2023/03/09 00:43:47;;;;;;;3.77;0.97;;;12.70;99.90;;;;;;5093389;28;20672;-60
2023/03/09 00:46:14;;;;;;;2.93;0.93;;;12.60;99.90;;;;;;5089940;28;20224;-66
2023/03/09 00:48:41;;;;;;;1.90;1.00;;;12.50;99.90;;;;;;5091649;28;20221;-65
2023/03/09 00:51:09;;;;;;;1.67;0.80;;;12.50;99.90;;;;;;5092051;28;20208;-65
2023/03/09 00:53:36;;;;;;;2.40;0.93;;;12.50;99.90;;;;;;5092068;28;20639;-60
2023/03/09 00:56:05;;;;;;;2.37;1.00;;;12.50;99.90;;;;;;5091611;28;20289;-63
2023/03/09 00:58:32;;;;;;;1.90;1.03;;;12.60;99.90;;;;;;5091452;28;20215;-60
2023/03/09 01:01:01;;;;;;;2.13;1.10;;;12.70;99.90;;;;;;5091441;28;20216;-59
2023/03/09 01:03:28;;;;;;;3.00;1.20;;;12.80;99.90;;;;;;5092043;28;20212;-59
2023/03/09 01:05:56;;;;;;;3.27;1.10;;;12.80;99.90;;;;;;5092027;28;20277;-65
2023/03/09 01:08:23;;;;;;;2.57;1.23;;;12.80;99.90;;;;;;5091362;28;20687;-61
2023/03/09 01:10:49;;;;;;;2.20;1.17;;;12.90;99.90;;;;;;5091399;28;20219;-63
2023/03/09 01:13:16;;;;;;;3.83;1.00;;;12.90;99.90;;;;;;5091776;28;20231;-58
2023/03/09 01:15:43;;;;;;;1.53;0.90;;;12.90;99.90;;;;;;5091525;28;20220;-64
2023/03/09 01:18:11;;;;;;;6.13;3.00;;;12.90;99.90;;;;;;5091866;28;20212;-63
2023/03/09 01:20:38;;;;;;;3.33;1.17;;;12.80;99.90;;;;;;5091495;28;20443;-59
2023/03/09 01:23:04;;;;;;;1.63;0.70;;;12.90;99.90;;;;;;5092652;28;20254;-60
2023/03/09 01:25:31;;;;;;;1.47;0.60;;;12.80;99.90;;;;;;5093796;28;20228;-61
2023/03/09 01:27:58;;;;;;;0.93;0.53;;;12.80;99.90;;;;;;5093045;28;20200;-60
2023/03/09 01:30:24;;;;;;;0.57;0.40;;;12.70;99.90;;;;;;5092451;28;20211;-60
2023/03/09 01:32:53;;;;;;;1.60;0.37;;;12.60;99.90;;;;;;5092796;28;20196;-60
2023/03/09 01:35:21;;;;;;;0.40;0.23;;;12.60;99.90;;;;;;5092350;28;20319;-60
2023/03/09 01:37:47;;;;;;;0.70;0.40;;;12.50;99.90;;;;;;5092294;28;20694;-59
2023/03/09 01:40:18;;;;;;;1.07;0.20;;;12.50;99.90;;;;;;5092142;28;20686;-59
2023/03/09 01:42:53;;;;;;;1.03;0.30;;;12.50;99.90;;;;;;5092179;28;20223;-60
2023/03/09 01:45:57;;;;;;;0.30;0.20;;;12.40;99.90;;;;;;5092575;28;20318;-59
2023/03/09 01:48:24;;;;;;;0.60;0.20;;;12.40;99.90;;;;;;5092351;28;20207;-60
2023/03/09 01:50:52;;;;;;;1.17;0.37;;;12.40;99.90;;;;;;5092064;28;20687;-60
2023/03/09 01:53:19;;;;;;;1.20;0.30;;;12.40;99.90;;;;;;5092253;28;20196;-60
2023/03/09 01:55:50;;;;;;;1.50;0.40;;;12.40;99.90;;;;;;5092031;28;20250;-60
2023/03/09 01:58:20;;;;;;;1.07;0.40;;;12.40;99.90;;;;;;5092223;28;20208;-60
2023/03/09 02:00:49;;;;;;;0.33;0.27;;;12.40;99.90;;;;;;5091913;28;20703;-59
2023/03/09 02:03:20;;;;;;;0.97;0.20;;;12.30;99.90;;;;;;5092025;28;20227;-59
2023/03/09 02:05:53;;;;;;;0.63;0.20;;;12.30;99.90;;;;;;5091972;28;20239;-59
2023/03/09 02:08:22;;;;;;;1.43;0.20;;;12.20;99.90;;;;;;5092246;28;20208;-59
2023/03/09 02:10:53;;;;;;;0.40;0.30;;;12.20;99.90;;;;;;5091842;28;20204;-60
2023/03/09 02:13:22;;;;;;;0.40;0.20;;;12.20;99.90;;;;;;5091957;28;20214;-59
2023/03/09 02:15:49;;;;;;;0.87;0.30;;;12.20;99.90;;;;;;5091662;28;20228;-59
2023/03/09 02:18:16;;;;;;;0.87;0.30;;;12.10;99.90;;;;;;5091705;28;20208;-60
2023/03/09 02:20:50;;;;;;;0.57;0.20;;;12.00;99.90;;;;;;5092970;28;20211;-59
2023/03/09 02:23:30;;;;;;;0.40;0.20;;;12.00;99.90;;;;;;5095989;28;20227;-59
2023/03/09 02:26:05;;;;;;;0.70;0.20;;;12.10;99.90;;;;;;5095938;28;20219;-60
2023/03/09 02:28:34;;;;;;;0.37;0.20;;;12.00;99.90;;;;;;5095729;28;20203;-59
2023/03/09 02:31:02;;;;;;;0.60;0.37;;;12.10;99.90;;;;;;5095953;28;20211;-59
2023/03/09 02:33:30;;;;;;;0.67;0.30;;;12.00;99.90;;;;;;5096033;28;20211;-59
2023/03/09 02:35:59;;;;;;;1.07;0.40;;;12.00;99.90;;;;;;5096066;28;20228;-60
2023/03/09 02:38:26;;;;;;;0.30;0.10;;;12.00;99.90;;;;;;5095624;28;20211;-59
2023/03/09 02:40:55;;;;;;;0.73;0.20;;;12.00;99.90;;;;;;5095271;28;20207;-60
2023/03/09 02:43:27;;;;;;;0.73;0.20;;;12.10;99.90;;;;;;5095413;28;20236;-59
2023/03/09 02:45:55;;;;;;;0.20;0.20;;;12.10;99.90;;;;;;5095688;28;20228;-59
2023/03/09 02:48:22;;;;;;;0.40;0.20;;;12.10;99.90;;;;;;5095566;28;20295;-60
2023/03/09 02:50:48;;;;;;;1.70;0.30;;;12.10;99.90;;;;;;5095520;28;20201;-61
2023/03/09 02:53:15;;;;;;;0.53;0.20;;;12.10;99.90;;;;;;5095285;28;20203;-60
2023/03/09 02:55:42;;;;;;;0.40;0.23;;;12.10;99.90;;;;;;5123970;22;20228;-55
2023/03/09 02:58:08;;;;;;;1.43;0.20;;;12.10;99.90;;;;;;5115694;28;20557;-55
2023/03/09 03:00:35;;;;;;;0.20;0.10;;;12.10;99.90;;;;;;5115418;28;20694;-56
2023/03/09 03:03:03;;;;;;;0.57;0.20;;;12.20;99.90;;;;;;5115917;28;20227;-55
2023/03/09 03:05:30;;;;;;;0.00;0.00;;;12.20;99.90;;;;;;5111900;28;20224;-55
2023/03/09 03:07:57;;;;;;;0.70;0.20;;;12.20;99.90;;;;;;5095196;28;20207;-55
2023/03/09 03:10:24;;;;;;;0.37;0.20;;;12.20;99.90;;;;;;5095031;28;20200;-55
2023/03/09 03:12:50;;;;;;;0.53;0.20;;;12.20;99.90;;;;;;5095394;28;20207;-55
2023/03/09 03:15:17;;;;;;;2.53;0.30;;;12.20;99.90;;;;;;5095422;28;20208;-60
2023/03/09 03:17:44;;;;;;;0.13;0.10;;;12.10;99.90;;;;;;5095060;28;20208;-55
2023/03/09 03:20:14;;;;;;;0.83;0.20;;;12.10;99.90;;;;;;5094858;28;20200;-54
2023/03/09 03:22:41;;;;;;;0.70;0.30;;;12.00;99.90;;;;;;5094821;28;20216;-54
2023/03/09 03:25:09;;;;;;;0.93;0.47;;;11.90;99.90;;;;;;5094744;28;20212;-55
2023/03/09 03:27:35;;;;;;;0.37;0.13;;;11.90;99.90;;;;;;5095178;28;20208;-56
2023/03/09 03:30:02;;;;;;;0.73;0.17;;;11.90;99.90;;;;;;5095107;28;20203;-55
2023/03/09 03:32:29;;;;;;;0.10;0.10;;;11.90;99.90;;;;;;5094479;28;20575;-55
2023/03/09 03:34:56;;;;;;;0.73;0.20;;;11.90;99.90;;;;;;5094957;28;20219;-55
2023/03/09 03:37:24;;;;;;;0.67;0.30;;;11.80;99.90;;;;;;5094757;28;20641;-54
2023/03/09 03:39:51;;;;;;;1.30;0.20;;;11.60;99.90;;;;;;5094728;28;20290;-54
2023/03/09 03:42:18;;;;;;;0.43;0.10;;;11.40;99.90;;;;;;5094585;28;20709;-56
2023/03/09 03:44:45;;;;;;;0.10;0.10;;;11.30;99.90;;;;;;5094618;28;20235;-55
2023/03/09 03:47:11;;;;;;;0.83;0.30;;;11.20;99.90;;;;;;5094455;28;20224;-55
2023/03/09 03:49:38;;;;;;;1.00;0.27;;;11.20;99.90;;;;;;5094164;28;20295;-55
2023/03/09 03:52:06;;;;;;;0.30;0.20;;;11.20;99.90;;;;;;5094376;28;20197;-55
2023/03/09 03:54:34;;;;;;;1.47;0.30;;;11.20;99.90;;;;;;5094564;28;20204;-55
2023/03/09 03:57:01;;;;;;;1.57;0.37;;;11.20;99.90;;;;;;5094254;28;20243;-55
2023/03/09 03:59:27;;;;;;;0.43;0.30;;;11.30;99.90;;;;;;5094422;28;20204;-55
2023/03/09 04:01:54;;;;;;;1.13;0.50;;;11.20;99.90;;;;;;5094294;28;20261;-54
2023/03/09 04:04:21;;;;;;;2.07;1.00;;;11.30;99.90;;;;;;5094135;28;20582;-55
2023/03/09 04:06:48;;;;;;;2.13;1.00;;;11.30;99.90;;;;;;5094766;28;20552;-54
2023/03/09 04:09:15;;;;;;;2.17;0.80;;;11.30;99.90;;;;;;5094862;28;20704;-55
2023/03/09 04:11:43;;;;;;;2.83;0.67;;;11.30;99.90;;;;;;5094516;28;20219;-55
2023/03/09 04:14:09;;;;;;;0.97;0.30;;;11.30;99.90;;;;;;5094468;28;20211;-54
2023/03/09 04:16:37;;;;;;;3.07;0.73;;;11.30;99.90;;;;;;5094673;28;20734;-54
2023/03/09 04:19:04;;;;;;;2.60;0.77;;;11.30;99.90;;;;;;5094267;28;20226;-54
2023/03/09 04:21:30;;;;;;;2.43;0.57;;;11.40;99.90;;;;;;5094262;28;20219;-55
2023/03/09 04:23:57;;;;;;;1.50;0.63;;;11.40;99.90;;;;;;5093991;28;20224;-54
2023/03/09 04:26:24;;;;;;;4.70;0.80;;;11.40;99.90;;;;;;5094064;28;20224;-54
2023/03/09 04:28:52;;;;;;;3.17;0.80;;;11.40;99.90;;;;;;5093959;28;20208;-54
2023/03/09 04:31:19;;;;;;;2.33;0.70;;;11.50;99.90;;;;;;5093548;28;20201;-54
2023/03/09 04:33:45;;;;;;;2.97;0.93;;;11.60;99.90;;;;;;5093849;28;20198;-55
2023/03/09 04:36:12;;;;;;;2.13;0.73;;;11.60;99.90;;;;;;5093937;28;20575;-54
2023/03/09 04:38:39;;;;;;;5.90;2.17;;;11.60;99.90;;;;;;5093664;28;20205;-54
2023/03/09 04:41:06;;;;;;;4.23;1.30;;;11.50;99.90;;;;;;5093536;28;20759;-53
2023/03/09 04:43:33;;;;;;;4.17;1.57;;;11.50;99.90;;;;;;5092848;28;20224;-54
2023/03/09 04:46:02;;;;;;;4.73;1.20;;;11.50;99.90;;;;;;5093783;28;20228;-54
2023/03/09 04:48:28;;;;;;;4.87;1.23;;;11.40;99.90;;;;;;5093960;28;20204;-54
2023/03/09 04:50:55;;;;;;;4.63;1.30;;;11.50;99.90;;;;;;5093737;28;20231;-54
2023/03/09 04:53:22;;;;;;;4.93;1.43;;;11.50;99.90;;;;;;5093972;28;20205;-55
2023/03/09 04:55:48;;;;;;;4.77;1.27;;;11.50;99.90;;;;;;5093731;28;20236;-54
2023/03/09 04:58:15;;;;;;;5.00;1.30;;;11.50;99.90;;;;;;5094265;28;20294;-54
2023/03/09 05:00:42;;;;;;;6.80;1.77;;;11.50;99.90;;;;;;5093628;28;20288;-54
2023/03/09 05:03:10;;;;;;;3.97;1.60;;;11.40;99.90;;;;;;5093646;28;20228;-54
2023/03/09 05:05:37;;;;;;;4.13;1.53;;;11.40;99.90;;;;;;5094190;28;20235;-54
2023/03/09 05:08:04;;;;;;;7.97;1.53;;;11.50;99.90;;;;;;5094302;28;20224;-53
2023/03/09 05:10:31;;;;;;;6.73;1.70;;;11.40;99.90;;;;;;5093732;28;20208;-54
2023/03/09 05:12:57;;;;;;;8.77;2.00;;;11.40;99.90;;;;;;5094034;28;20207;-54
2023/03/09 05:15:24;;;;;;;8.23;1.60;;;11.50;99.90;;;;;;5093673;28;20251;-56
2023/03/09 05:17:51;;;;;;;5.37;1.60;;;11.40;99.90;;;;;;5093718;28;20204;-55
2023/03/09 05:20:19;;;;;;;5.90;1.63;;;11.40;99.90;;;;;;5093262;28;20215;-55
2023/03/09 05:22:46;;;;;;;8.50;2.17;;;11.40;99.90;;;;;;5093018;28;20216;-54
2023/03/09 05:25:13;;;;;;;6.47;1.50;;;11.40;99.90;;;;;;5093086;28;20307;-55
2023/03/09 05:27:39;;;;;;;4.83;1.60;;;11.30;99.90;;;;;;5092921;28;20584;-54
2023/03/09 05:30:07;;;;;;;5.60;1.50;;;11.30;99.90;;;;;;5092725;28;20546;-55
2023/03/09 05:32:34;;;;;;;5.17;1.80;;;11.20;99.90;;;;;;5094140;28;20204;-55
2023/03/09 05:35:01;;;;;;;6.83;1.70;;;11.10;99.90;;;;;;5094979;28;20204;-56
2023/03/09 05:37:29;;;;;;;6.23;1.70;;;11.10;99.90;;;;;;5094922;28;20208;-56
2023/03/09 05:39:56;;;;;;;7.80;2.00;;;11.10;99.90;;;;;;5094091;28;20204;-55
2023/03/09 05:42:23;;;;;;;6.27;1.73;;;11.00;99.90;;;;;;5094254;28;20573;-54
2023/03/09 05:44:50;;;;;;;4.57;1.33;;;11.00;99.90;;;;;;5095315;28;20200;-55
2023/03/09 05:47:16;;;;;;;11.87;5.60;;;11.00;99.90;;;;;;5094853;28;20236;-55
2023/03/09 05:49:43;;;;;;;4.77;1.40;;;11.00;99.90;;;;;;5094314;28;20660;-56
2023/03/09 05:52:10;;;;;;;6.23;1.87;;;11.00;99.90;;;;;;5093835;28;20204;-56
2023/03/09 05:54:38;;;;;;;4.47;1.63;;;11.10;99.90;;;;;;5094593;28;20201;-55
2023/03/09 05:57:05;;;;;;;5.47;1.60;;;11.10;99.90;;;;;;5093920;28;20765;-57
2023/03/09 05:59:32;;;;;;;5.53;1.70;;;11.00;99.90;;;;;;5094247;28;20235;-55
2023/03/09 06:01:59;;;;;;;8.30;2.30;;;11.10;99.90;;;;;;5093928;28;20208;-54
2023/03/09 06:04:25;;;;;;;6.53;1.63;;;11.20;99.90;;;;;;5093487;28;20232;-56
2023/03/09 06:06:52;;;;;;;4.80;1.80;;;11.20;99.90;;;;;;5093270;28;20231;-54
2023/03/09 06:09:19;;;;;;;7.30;2.10;;;11.30;99.90;;;;;;5093187;28;20215;-54
2023/03/09 06:11:47;;;;;;;5.67;1.47;;;11.30;99.90;;;;;;5093543;28;20299;-55
2023/03/09 06:14:14;;;;;;;9.27;1.83;;;11.40;99.90;;;;;;5093556;28;20204;-56
2023/03/09 06:16:41;;;;;;;6.67;1.67;;;11.50;99.90;;;;;;5093490;28;20250;-55
2023/03/09 06:19:08;;;;;;;3.67;1.63;;;11.50;99.90;;;;;;5093494;28;20204;-55
2023/03/09 06:21:35;;;;;;;8.93;1.93;;;11.50;99.90;;;;;;5093012;28;20230;-55
2023/03/09 06:24:02;;;;;;;3.70;1.50;;;11.60;99.90;;;;;;5092905;28;20579;-56
2023/03/09 06:26:29;;;;;;;5.13;1.53;;;11.70;99.90;;;;;;5093203;28;20716;-55
2023/03/09 06:28:57;;;;;;;7.40;1.90;;;11.90;99.90;;;;;;5093064;28;20254;-56
2023/03/09 06:31:24;;;;;;;6.40;2.07;;;12.00;99.90;;;;;;5092396;28;20594;-56
2023/03/09 06:33:51;;;;;;;8.53;1.87;;;12.10;99.90;;;;;;5092915;28;20207;-55
2023/03/09 06:36:19;;;;;;;6.93;1.60;;;12.20;99.90;;;;;;5092922;28;20228;-55
2023/03/09 06:38:46;;;;;;;6.10;1.60;;;12.40;99.90;;;;;;5092797;28;20215;-55
2023/03/09 06:41:14;;;;;;;7.03;1.80;;;12.50;99.90;;;;;;5092332;28;20200;-55
2023/03/09 06:43:42;;;;;;;9.07;2.50;;;12.50;99.90;;;;;;5092175;28;20722;-55
2023/03/09 06:46:10;;;;;;;6.03;2.27;;;12.60;99.90;;;;;;5092377;28;20224;-56
2023/03/09 06:48:37;;;;;;;7.93;2.20;;;12.60;99.90;;;;;;5092190;28;20295;-56
2023/03/09 06:51:04;;;;;;;6.00;1.60;;;12.60;99.90;;;;;;5091932;28;20204;-55
2023/03/09 06:53:31;;;;;;;5.57;1.63;;;12.70;99.90;;;;;;5092687;28;20212;-56
2023/03/09 06:56:00;;;;;;;6.63;1.73;;;12.80;99.90;;;;;;5091863;28;20232;-55
2023/03/09 06:58:27;;;;;;;7.27;2.03;;;12.90;99.90;;;;;;5092131;28;20692;-56
2023/03/09 07:00:54;;;;;;;9.50;2.23;;;13.00;99.90;;;;;;5091634;28;20207;-56
2023/03/09 07:03:22;;;;;;;6.57;2.70;;;13.00;99.90;;;;;;5092593;28;20238;-56
2023/03/09 07:05:48;;;;;;;6.57;1.90;;;13.10;99.90;;;;;;5092043;28;20235;-56
2023/03/09 07:08:15;;;;;;;4.97;1.70;;;13.30;99.90;;;;;;5095699;28;20208;-56
2023/03/09 07:10:42;;;;;;;8.27;2.00;;;13.40;99.90;;;;;;5095501;28;20204;-56
2023/03/09 07:13:14;;;;;;;4.47;1.40;;;13.40;99.90;;;;;;5095741;28;20204;-56
2023/03/09 07:15:40;;;;;;;4.50;1.37;;;13.40;99.90;;;;;;5095357;28;20224;-54
2023/03/09 07:18:07;;;;;;;6.50;1.83;;;13.50;99.90;;;;;;5095088;28;20215;-55
2023/03/09 07:20:35;;;;;;;6.87;2.00;;;13.70;99.90;;;;;;5095212;28;20679;-55
2023/03/09 07:23:02;;;;;;;7.00;1.60;;;14.00;99.90;;;;;;5095656;28;20211;-55
2023/03/09 07:25:29;;;;;;;6.47;2.00;;;14.80;99.90;;;;;;5095456;28;20224;-55
2023/03/09 07:27:56;;;;;;;10.57;4.80;;;15.30;99.90;;;;;;5095141;28;20208;-55
2023/03/09 07:30:22;;;;;;;6.30;1.80;;;15.50;99.90;;;;;;5094899;28;20207;-55
2023/03/09 07:32:49;;;;;;;5.10;1.50;;;15.50;99.90;;;;;;5095473;28;20205;-55
2023/03/09 07:35:16;;;;;;;4.37;1.60;;;15.60;99.90;;;;;;5095249;28;20239;-56
2023/03/09 07:37:44;;;;;;;6.43;1.83;;;15.80;99.90;;;;;;5095183;28;20200;-57
2023/03/09 07:40:12;;;;;;;3.80;1.40;;;16.00;99.90;;;;;;5094850;28;20212;-57
2023/03/09 07:42:39;;;;;;;4.90;1.73;;;15.90;99.90;;;;;;5094657;28;20212;-57
2023/03/09 07:45:07;;;;;;;5.15;1.77;;;15.80;99.90;;;;;;5094330;28;20248;-62
2023/03/09 07:47:34;;;;;;;10.03;2.40;;;15.70;99.90;;;;;;5094912;28;20208;-57
2023/03/09 07:50:01;;;;;;;6.13;2.10;;;15.60;99.90;;;;;;5094581;28;20239;-55
2023/03/09 07:52:31;;;;;;;8.03;2.43;;;15.40;99.90;;;;;;5094824;28;20216;-56
2023/03/09 07:54:59;;;;;;;6.67;2.10;;;15.40;99.90;;;;;;5094842;28;20200;-56
2023/03/09 07:57:31;;;;;;;7.33;1.97;;;15.30;99.90;;;;;;5094344;28;20243;-56
2023/03/09 07:59:57;;;;;;;9.10;1.60;;;15.40;99.90;;;;;;5094613;28;20215;-55
2023/03/09 08:02:24;;;;;;;6.27;1.60;;;15.60;99.90;;;;;;5094460;28;20231;-56
2023/03/09 08:04:51;;;;;;;6.40;1.63;;;15.70;99.90;;;;;;5094448;28;20236;-54
2023/03/09 08:07:19;;;;;;;7.50;2.07;;;15.70;99.90;;;;;;5094432;28;20224;-56
2023/03/09 08:09:46;;;;;;;5.00;1.55;;;15.80;99.90;;;;;;5094510;28;20204;-54
2023/03/09 08:12:14;;;;;;;9.23;2.07;;;15.90;99.90;;;;;;5094117;28;20208;-54
2023/03/09 08:14:41;;;;;;;4.53;1.37;;;15.90;99.90;;;;;;5094871;28;20208;-56
2023/03/09 08:17:08;;;;;;;3.10;1.33;;;15.90;99.90;;;;;;5094358;28;20228;-55
2023/03/09 08:19:35;;;;;;;6.45;1.50;;;15.80;99.90;;;;;;5094232;28;20212;-56
2023/03/09 08:22:02;;;;;;;4.18;1.35;;;15.80;99.90;;;;;;5094207;28;20296;-55
2023/03/09 08:24:29;;;;;;;5.60;1.43;;;15.70;99.90;;;;;;5094414;28;20219;-55
2023/03/09 08:26:55;;;;;;;7.80;1.47;;;15.60;99.90;;;;;;5093886;28;20235;-55
2023/03/09 08:29:23;;;;;;;4.28;1.70;;;15.70;99.90;;;;;;5094076;28;20204;-55
2023/03/09 08:31:50;;;;;;;2.30;1.13;;;15.90;99.90;;;;;;5093371;28;20743;-55
2023/03/09 08:34:18;;;;;;;6.00;1.33;;;16.00;99.90;;;;;;5093421;28;20249;-57
2023/03/09 08:36:45;;;;;;;6.07;1.55;;;16.10;99.90;;;;;;5093311;28;20235;-56
2023/03/09 08:39:12;;;;;;;5.30;1.57;;;16.00;99.90;;;;;;5093240;28;20208;-55
2023/03/09 08:41:39;;;;;;;4.87;1.70;;;16.10;99.90;;;;;;5093479;28;20294;-56
2023/03/09 08:44:05;;;;;;;8.45;1.52;;;16.20;99.90;;;;;;5093605;28;20231;-56
2023/03/09 08:46:33;;;;;;;4.75;1.45;;;16.20;99.90;;;;;;5093030;28;20227;-56
2023/03/09 08:49:00;;;;;;;5.18;1.40;;;16.20;99.90;;;;;;5089499;28;20675;-56
2023/03/09 08:51:29;;;;;;;5.50;1.38;;;16.10;99.90;;;;;;5091684;28;20230;-56
2023/03/09 08:53:56;;;;;;;5.07;1.85;;;16.00;99.90;;;;;;5092294;28;20204;-57
2023/03/09 08:56:23;;;;;;;4.13;1.42;;;15.80;99.90;;;;;;5091799;28;20880;-60
2023/03/09 08:58:50;;;;;;;4.53;1.37;;;15.70;99.90;;;;;;5092072;28;20204;-60
2023/03/09 09:01:17;;;;;;;3.88;1.08;;;15.50;99.90;;;;;;5091991;28;20208;-60
2023/03/09 09:03:45;;;;;;;4.18;1.08;;;15.30;99.90;;;;;;5092136;28;20321;-60
2023/03/09 09:06:14;;;;;;;6.70;1.30;;;15.00;99.90;;;;;;5092394;28;20285;-61
2023/03/09 09:08:42;;;;;;;3.90;1.10;;;14.90;99.90;;;;;;5092567;28;20726;-62
2023/03/09 09:11:10;;;;;;;3.80;1.03;;;14.70;99.90;;;;;;5092424;28;20575;-63
2023/03/09 09:13:37;;;;;;;3.60;1.20;;;14.50;99.90;;;;;;5092347;28;20252;-63
2023/03/09 09:16:05;;;;;;;4.37;1.30;;;14.50;99.90;;;;;;5092319;28;20749;-59
2023/03/09 09:18:32;;;;;;;3.07;1.00;;;14.40;99.90;;;;;;5091491;28;20675;-60
2023/03/09 09:21:03;;;;;;;1.83;0.73;;;14.40;99.90;;;;;;5091180;28;20204;-61
2023/03/09 09:23:29;;;;;;;3.20;1.17;;;14.30;99.90;;;;;;5092523;28;20578;-61
2023/03/09 09:25:57;;;;;;;3.07;1.07;;;14.40;99.90;;;;;;5091340;28;20239;-61
2023/03/09 09:28:24;;;;;;;8.70;1.57;;;14.50;99.90;;;;;;5092630;28;20220;-60
2023/03/09 09:30:54;;;;;;;3.10;1.23;;;14.80;99.90;;;;;;5091686;28;20208;-57
2023/03/09 09:33:21;;;;;;;4.67;1.50;;;15.00;99.90;;;;;;5091489;28;20421;-57
2023/03/09 09:36:00;;;;;;;3.23;1.07;;;15.10;99.90;;;;;;5091115;28;20216;-57
2023/03/09 09:38:29;;;;;;;3.20;0.87;;;15.20;99.90;;;;;;5091145;28;20207;-56
2023/03/09 09:40:57;;;;;;;2.73;1.00;;;15.30;99.90;;;;;;5091436;28;20611;-57
2023/03/09 09:43:25;;;;;;;2.33;0.80;;;15.30;99.90;;;;;;5091210;28;20648;-57
2023/03/09 09:45:55;;;;;;;3.67;1.20;;;15.30;99.90;;;;;;5091015;28;20658;-57
2023/03/09 09:48:25;;;;;;;5.80;1.00;;;15.30;99.90;;;;;;5091463;28;20212;-57
2023/03/09 09:51:10;;;;;;;3.23;1.40;;;15.50;99.90;;;;;;5091064;28;20216;-58
2023/03/09 09:53:50;;;;;;;6.83;1.13;;;15.50;99.90;;;;;;5091128;28;20671;-57
2023/03/09 09:56:22;;;;;;;3.83;1.00;;;15.70;99.90;;;;;;5090787;28;20281;-58
2023/03/09 09:58:52;;;;;;;2.80;1.10;;;15.80;99.90;;;;;;5091056;28;20208;-58
2023/03/09 10:01:26;;;;;;;3.78;0.95;;;16.10;99.90;;;;;;5091457;28;20207;-58
2023/03/09 10:03:58;;;;;;;2.87;0.90;;;16.20;99.90;;;;;;5090970;28;20215;-58
2023/03/09 10:06:27;;;;;;;2.72;1.25;;;16.10;99.90;;;;;;5090746;28;20234;-58
2023/03/09 10:08:57;;;;;;;2.75;1.00;;;16.10;99.90;;;;;;5090794;28;20294;-57
2023/03/09 10:11:27;;;;;;;3.10;1.38;;;16.20;99.90;;;;;;5091281;28;20207;-57
2023/03/09 10:13:58;;;;;;;3.80;0.80;;;16.10;99.90;;;;;;5090992;28;20626;-57
2023/03/09 10:16:28;;;;;;;3.03;1.00;;;16.20;99.90;;;;;;5090776;28;20224;-57
2023/03/09 10:18:57;;;;;;;2.30;1.00;;;16.30;99.90;;;;;;5091063;28;20710;-57
2023/03/09 10:21:31;;;;;;;3.00;1.07;;;16.20;99.90;;;;;;5090275;28;20211;-57
2023/03/09 10:24:06;;;;;;;3.07;0.73;;;16.10;99.90;;;;;;5091192;28;20211;-57
2023/03/09 10:26:44;;;;;;;4.72;1.10;;;16.20;99.90;;;;;;5090877;28;20603;-59
2023/03/09 10:29:17;;;;;;;3.60;1.03;;;16.20;99.90;;;;;;5091021;28;20677;-58
2023/03/09 10:31:50;;;;;;;4.68;2.70;;;16.30;99.90;;;;;;5091148;28;20204;-59
2023/03/09 10:34:23;;;;;;;5.75;1.08;;;16.20;99.90;;;;;;5091498;28;20261;-60
2023/03/09 10:37:04;;;;;;;4.77;1.33;;;16.00;99.90;;;;;;5090967;28;20631;-60
2023/03/09 10:39:39;;;;;;;3.40;1.20;;;15.80;99.90;;;;;;5091162;28;20208;-60
2023/03/09 10:42:19;;;;;;;3.93;1.63;;;15.60;99.90;;;;;;5092742;28;20204;-61
2023/03/09 10:44:57;;;;;;;12.43;2.70;;;15.40;99.90;;;;;;5095009;28;20232;-61
2023/03/09 10:47:24;;;;;;;3.33;0.90;;;15.20;99.90;;;;;;5096682;28;20235;-60
2023/03/09 10:50:11;;;;;;;6.67;1.20;;;15.00;99.90;;;;;;5096170;28;20218;-63
2023/03/09 10:52:39;;;;;;;2.77;0.70;;;14.80;99.90;;;;;;5094968;28;20216;-62
2023/03/09 10:55:35;;;;;;;1.70;0.87;;;14.90;99.90;;;;;;5096039;28;20206;-63
2023/03/09 10:58:07;;;;;;;3.50;1.20;;;15.10;99.90;;;;;;5095293;28;20208;-60
2023/03/09 11:00:34;;;;;;;3.43;1.10;;;15.60;99.90;;;;;;5094216;28;20207;-59
2023/03/09 11:03:01;;;;;;;4.57;0.80;;;15.80;99.90;;;;;;5094562;28;20204;-60
2023/03/09 11:05:30;;;;;;;2.90;0.80;;;15.90;99.90;;;;;;5094192;28;20235;-59
2023/03/09 11:08:02;;;;;;;2.37;0.90;;;15.90;99.90;;;;;;5094602;28;20205;-59
2023/03/09 11:10:30;;;;;;;3.47;1.10;;;16.10;99.90;;;;;;5094371;28;20201;-60
2023/03/09 11:12:58;;;;;;;2.88;0.82;;;16.20;99.90;;;;;;5094615;28;20200;-59
2023/03/09 11:15:28;;;;;;;2.27;0.90;;;16.30;99.90;;;;;;5093700;28;20228;-59
2023/03/09 11:17:56;;;;;;;3.72;0.80;;;16.40;99.90;;;;;;5094502;28;20295;-62
2023/03/09 11:20:28;;;;;;;2.65;1.10;;;16.60;99.90;;;;;;5094486;28;20299;-60
2023/03/09 11:23:10;;;;;;;4.68;1.35;;;16.90;99.90;;;;;;5096470;28;20295;-64
2023/03/09 11:25:55;;;;;;;5.40;1.30;;;17.00;99.90;;;;;;5094328;28;20238;-60
2023/03/09 11:28:30;;;;;;;4.95;0.93;;;16.90;99.90;;;;;;5093752;28;20208;-62
2023/03/09 11:30:58;;;;;;;3.33;0.90;;;16.90;99.90;;;;;;5096341;28;20231;-63
2023/03/09 11:33:26;;;;;;;4.03;1.10;;;17.10;99.90;;;;;;5094763;28;20619;-58
2023/03/09 11:35:55;;;;;;;1.85;0.90;;;17.00;99.90;;;;;;5093736;28;20318;-59
2023/03/09 11:38:26;;;;;;;3.75;2.13;;;17.10;99.90;;;;;;5093571;28;20211;-59
2023/03/09 11:41:06;;;;;;;3.05;0.80;;;17.00;99.90;;;;;;5094642;28;20680;-59
2023/03/09 11:43:37;;;;;;;3.25;0.98;;;17.00;99.90;;;;;;5093670;28;20211;-58
2023/03/09 11:46:07;;;;;;;1.90;0.90;;;17.10;99.90;;;;;;5093733;28;20236;-63
2023/03/09 11:48:39;;;;;;;2.70;0.98;;;17.40;99.90;;;;;;5097207;28;20686;-61
2023/03/09 11:51:10;;;;;;;5.25;1.20;;;17.60;99.90;;;;;;5097111;28;20273;-62
2023/03/09 11:53:42;;;;;;;3.83;1.15;;;17.80;99.90;;;;;;5093975;28;20238;-58
2023/03/09 11:56:18;;;;;;;2.90;1.10;;;17.80;99.90;;;;;;5094869;28;20232;-60
2023/03/09 11:58:49;;;;;;;3.30;1.10;;;17.80;99.90;;;;;;5095434;28;20585;-61
2023/03/09 12:01:25;;;;;;;3.40;1.60;;;17.70;99.90;;;;;;5095336;28;20213;-64
2023/03/09 12:03:59;;;;;;;3.83;1.20;;;17.70;99.90;;;;;;5094800;28;20210;-61
2023/03/09 12:06:40;;;;;;;3.22;0.93;;;17.70;99.90;;;;;;5094608;28;20224;-62
2023/03/09 12:09:11;;;;;;;2.10;0.73;;;17.70;99.90;;;;;;5091199;28;20219;-60
2023/03/09 12:11:42;;;;;;;3.15;1.00;;;17.70;99.90;;;;;;5092113;28;20201;-59
2023/03/09 12:14:19;;;;;;;1.90;0.70;;;17.80;99.90;;;;;;5093036;28;20234;-62
2023/03/09 12:16:49;;;;;;;3.90;0.88;;;18.00;99.90;;;;;;5093664;28;20307;-63
2023/03/09 12:19:19;;;;;;;1.73;0.93;;;18.00;99.90;;;;;;5095418;28;20204;-60
2023/03/09 12:21:50;;;;;;;2.08;0.70;;;18.10;99.90;;;;;;5092563;28;20261;-58
2023/03/09 12:24:31;;;;;;;2.95;1.08;;;18.30;99.90;;;;;;5093587;28;20196;-62
2023/03/09 12:27:02;;;;;;;3.08;1.20;;;18.20;99.90;;;;;;5094020;28;20224;-61
2023/03/09 12:29:35;;;;;;;2.10;0.95;;;18.00;99.90;;;;;;5093534;28;20211;-61
2023/03/09 12:32:20;;;;;;;3.85;0.57;;;18.10;99.90;;;;;;5094303;28;20227;-62
2023/03/09 12:34:49;;;;;;;4.20;0.80;;;18.20;99.90;;;;;;5093219;28;20694;-65
2023/03/09 12:37:58;;;;;;;3.08;0.80;;;18.20;99.90;;;;;;5095428;28;20326;-62
2023/03/09 12:40:38;;;;;;;2.13;0.70;;;18.10;99.90;;;;;;5093472;28;20204;-61
2023/03/09 12:43:34;;;;;;;4.55;1.00;;;17.90;99.90;;;;;;5093640;28;20265;-60
2023/03/09 12:46:56;;;;;;;1.73;0.93;;;17.80;99.90;;;;;;5092823;28;20277;-62
2023/03/09 12:49:27;;;;;;;5.43;1.10;;;17.80;99.90;;;;;;5092954;28;20218;-60
2023/03/09 12:52:12;;;;;;;2.70;1.20;;;17.90;99.90;;;;;;5093223;28;20683;-61
2023/03/09 12:54:38;;;;;;;3.97;2.00;;;18.00;99.90;;;;;;5092254;28;20204;-59
2023/03/09 12:57:19;;;;;;;5.20;3.33;;;18.10;99.90;;;;;;5092676;28;20241;-60